sensor_id;sensor_type;location;lat;lon;timestamp;temperature;humidity
45044;DHT22;30784;48.490;9.688;2024-03-25T00:01:50;6.40;59.90
45044;DHT22;30784;48.490;9.688;2024-03-25T00:04:16;6.40;60.00
45044;DHT22;30784;48.490;9.688;2024-03-25T00:06:42;6.40;59.90
45044;DHT22;30784;48.490;9.688;2024-03-25T00:09:07;6.40;59.90
45044;DHT22;30784;48.490;9.688;2024-03-25T00:11:39;6.40;59.90
45044;DHT22;30784;48.490;9.688;2024-03-25T00:14:05;6.40;59.80
45044;DHT22;30784;48.490;9.688;2024-03-25T00:16:30;6.40;59.90
45044;DHT22;30784;48.490;9.688;2024-03-25T00:18:56;6.40;59.90
45044;DHT22;30784;48.490;9.688;2024-03-25T00:21:21;6.40;59.90
45044;DHT22;30784;48.490;9.688;2024-03-25T00:23:47;6.40;59.90
45044;DHT22;30784;48.490;9.688;2024-03-25T00:26:12;6.40;59.80
45044;DHT22;30784;48.490;9.688;2024-03-25T00:28:38;6.40;59.90
45044;DHT22;30784;48.490;9.688;2024-03-25T00:31:04;6.40;59.90
45044;DHT22;30784;48.490;9.688;2024-03-25T00:33:29;6.40;59.90
45044;DHT22;30784;48.490;9.688;2024-03-25T00:35:55;6.30;60.40
45044;DHT22;30784;48.490;9.688;2024-03-25T00:38:20;6.30;59.90
45044;DHT22;30784;48.490;9.688;2024-03-25T00:40:46;6.40;60.00
45044;DHT22;30784;48.490;9.688;2024-03-25T00:43:11;6.30;60.00
45044;DHT22;30784;48.490;9.688;2024-03-25T00:45:37;6.30;60.00
45044;DHT22;30784;48.490;9.688;2024-03-25T00:48:03;6.40;60.00
45044;DHT22;30784;48.490;9.688;2024-03-25T00:50:29;6.30;60.10
45044;DHT22;30784;48.490;9.688;2024-03-25T00:52:54;6.30;60.10
45044;DHT22;30784;48.490;9.688;2024-03-25T00:55:20;6.30;60.10
45044;DHT22;30784;48.490;9.688;2024-03-25T00:57:46;6.40;60.20
45044;DHT22;30784;48.490;9.688;2024-03-25T01:00:12;6.40;60.10
45044;DHT22;30784;48.490;9.688;2024-03-25T01:02:38;6.40;60.10
45044;DHT22;30784;48.490;9.688;2024-03-25T01:05:04;6.40;60.00
45044;DHT22;30784;48.490;9.688;2024-03-25T01:07:30;6.40;60.10
45044;DHT22;30784;48.490;9.688;2024-03-25T01:09:56;6.50;60.10
45044;DHT22;30784;48.490;9.688;2024-03-25T01:12:22;6.40;60.00
45044;DHT22;30784;48.490;9.688;2024-03-25T01:14:47;6.40;60.00
45044;DHT22;30784;48.490;9.688;2024-03-25T01:17:12;6.40;60.00
45044;DHT22;30784;48.490;9.688;2024-03-25T01:19:38;6.40;60.00
45044;DHT22;30784;48.490;9.688;2024-03-25T01:22:03;6.40;59.90
45044;DHT22;30784;48.490;9.688;2024-03-25T01:24:30;6.40;59.90
45044;DHT22;30784;48.490;9.688;2024-03-25T01:26:55;6.50;60.00
45044;DHT22;30784;48.490;9.688;2024-03-25T01:29:21;6.40;59.80
45044;DHT22;30784;48.490;9.688;2024-03-25T01:31:47;6.40;59.80
45044;DHT22;30784;48.490;9.688;2024-03-25T01:34:12;6.50;59.80
45044;DHT22;30784;48.490;9.688;2024-03-25T01:36:38;6.50;59.70
45044;DHT22;30784;48.490;9.688;2024-03-25T01:39:04;6.40;59.70
45044;DHT22;30784;48.490;9.688;2024-03-25T01:41:30;6.50;59.80
45044;DHT22;30784;48.490;9.688;2024-03-25T01:43:56;6.50;59.80
45044;DHT22;30784;48.490;9.688;2024-03-25T01:46:21;6.50;59.70
45044;DHT22;30784;48.490;9.688;2024-03-25T01:48:48;6.50;59.60
45044;DHT22;30784;48.490;9.688;2024-03-25T01:51:17;6.50;59.60
45044;DHT22;30784;48.490;9.688;2024-03-25T01:53:43;6.50;59.50
45044;DHT22;30784;48.490;9.688;2024-03-25T01:56:09;6.50;59.40
45044;DHT22;30784;48.490;9.688;2024-03-25T01:58:35;6.50;59.40
45044;DHT22;30784;48.490;9.688;2024-03-25T02:01:03;6.50;59.40
45044;DHT22;30784;48.490;9.688;2024-03-25T02:03:29;6.50;59.40
45044;DHT22;30784;48.490;9.688;2024-03-25T02:06:04;6.50;59.30
45044;DHT22;30784;48.490;9.688;2024-03-25T02:08:32;6.50;59.20
45044;DHT22;30784;48.490;9.688;2024-03-25T02:10:58;6.50;59.20
45044;DHT22;30784;48.490;9.688;2024-03-25T02:13:25;6.50;59.20
45044;DHT22;30784;48.490;9.688;2024-03-25T02:15:50;6.50;59.10
45044;DHT22;30784;48.490;9.688;2024-03-25T02:18:19;6.50;59.00
45044;DHT22;30784;48.490;9.688;2024-03-25T02:20:45;6.50;59.00
45044;DHT22;30784;48.490;9.688;2024-03-25T02:23:12;6.50;59.00
45044;DHT22;30784;48.490;9.688;2024-03-25T02:25:38;6.50;59.10
45044;DHT22;30784;48.490;9.688;2024-03-25T02:28:04;6.50;59.10
45044;DHT22;30784;48.490;9.688;2024-03-25T02:30:30;6.50;59.10
45044;DHT22;30784;48.490;9.688;2024-03-25T02:32:55;6.50;59.00
45044;DHT22;30784;48.490;9.688;2024-03-25T02:35:22;6.40;59.40
45044;DHT22;30784;48.490;9.688;2024-03-25T02:37:51;6.40;58.80
45044;DHT22;30784;48.490;9.688;2024-03-25T02:40:17;6.40;58.80
45044;DHT22;30784;48.490;9.688;2024-03-25T02:42:44;6.40;58.90
45044;DHT22;30784;48.490;9.688;2024-03-25T02:45:09;6.40;58.90
45044;DHT22;30784;48.490;9.688;2024-03-25T02:47:35;6.40;59.00
45044;DHT22;30784;48.490;9.688;2024-03-25T02:50:01;6.30;58.90
45044;DHT22;30784;48.490;9.688;2024-03-25T02:52:27;6.40;59.60
45044;DHT22;30784;48.490;9.688;2024-03-25T02:54:53;6.30;59.10
45044;DHT22;30784;48.490;9.688;2024-03-25T02:57:20;6.30;59.00
45044;DHT22;30784;48.490;9.688;2024-03-25T02:59:45;6.30;59.00
45044;DHT22;30784;48.490;9.688;2024-03-25T03:02:11;6.30;59.00
45044;DHT22;30784;48.490;9.688;2024-03-25T03:04:36;6.30;58.90
45044;DHT22;30784;48.490;9.688;2024-03-25T03:07:02;6.30;59.00
45044;DHT22;30784;48.490;9.688;2024-03-25T03:09:28;6.30;58.90
45044;DHT22;30784;48.490;9.688;2024-03-25T03:11:53;6.30;59.00
45044;DHT22;30784;48.490;9.688;2024-03-25T03:14:19;6.30;59.00
45044;DHT22;30784;48.490;9.688;2024-03-25T03:16:44;6.30;58.90
45044;DHT22;30784;48.490;9.688;2024-03-25T03:19:10;6.20;59.00
45044;DHT22;30784;48.490;9.688;2024-03-25T03:21:35;6.20;59.00
45044;DHT22;30784;48.490;9.688;2024-03-25T03:24:02;6.20;59.00
45044;DHT22;30784;48.490;9.688;2024-03-25T03:26:28;6.20;59.10
45044;DHT22;30784;48.490;9.688;2024-03-25T03:28:54;6.20;59.10
45044;DHT22;30784;48.490;9.688;2024-03-25T03:31:20;6.20;59.00
45044;DHT22;30784;48.490;9.688;2024-03-25T03:33:47;6.20;59.00
45044;DHT22;30784;48.490;9.688;2024-03-25T03:36:15;6.20;58.90
45044;DHT22;30784;48.490;9.688;2024-03-25T03:38:40;6.20;58.90
45044;DHT22;30784;48.490;9.688;2024-03-25T03:41:06;6.20;58.90
45044;DHT22;30784;48.490;9.688;2024-03-25T03:43:32;6.20;58.90
45044;DHT22;30784;48.490;9.688;2024-03-25T03:45:57;6.20;58.80
45044;DHT22;30784;48.490;9.688;2024-03-25T03:48:23;6.20;58.80
45044;DHT22;30784;48.490;9.688;2024-03-25T03:50:48;6.20;58.80
45044;DHT22;30784;48.490;9.688;2024-03-25T03:53:14;6.20;58.80
45044;DHT22;30784;48.490;9.688;2024-03-25T03:55:39;6.20;58.80
45044;DHT22;30784;48.490;9.688;2024-03-25T03:58:05;6.10;58.70
45044;DHT22;30784;48.490;9.688;2024-03-25T04:00:34;6.10;58.80
45044;DHT22;30784;48.490;9.688;2024-03-25T04:03:00;6.10;58.80
45044;DHT22;30784;48.490;9.688;2024-03-25T04:05:29;6.10;58.80
45044;DHT22;30784;48.490;9.688;2024-03-25T04:07:55;6.10;58.80
45044;DHT22;30784;48.490;9.688;2024-03-25T04:10:20;6.10;58.80
45044;DHT22;30784;48.490;9.688;2024-03-25T04:12:46;6.10;58.80
45044;DHT22;30784;48.490;9.688;2024-03-25T04:15:12;6.10;58.80
45044;DHT22;30784;48.490;9.688;2024-03-25T04:17:46;6.10;58.80
45044;DHT22;30784;48.490;9.688;2024-03-25T04:20:12;6.10;58.80
45044;DHT22;30784;48.490;9.688;2024-03-25T04:22:42;6.00;58.70
45044;DHT22;30784;48.490;9.688;2024-03-25T04:25:09;6.00;58.70
45044;DHT22;30784;48.490;9.688;2024-03-25T04:27:42;6.00;58.80
45044;DHT22;30784;48.490;9.688;2024-03-25T04:30:09;6.00;58.80
45044;DHT22;30784;48.490;9.688;2024-03-25T04:32:35;6.00;58.90
45044;DHT22;30784;48.490;9.688;2024-03-25T04:35:01;6.00;58.90
45044;DHT22;30784;48.490;9.688;2024-03-25T04:37:27;6.00;58.90
45044;DHT22;30784;48.490;9.688;2024-03-25T04:39:53;6.00;58.90
45044;DHT22;30784;48.490;9.688;2024-03-25T04:42:19;6.00;58.90
45044;DHT22;30784;48.490;9.688;2024-03-25T04:44:45;6.00;58.90
45044;DHT22;30784;48.490;9.688;2024-03-25T04:47:11;6.00;58.90
45044;DHT22;30784;48.490;9.688;2024-03-25T04:49:36;6.00;58.90
45044;DHT22;30784;48.490;9.688;2024-03-25T04:52:03;6.00;58.80
45044;DHT22;30784;48.490;9.688;2024-03-25T04:54:29;6.00;58.80
45044;DHT22;30784;48.490;9.688;2024-03-25T04:56:54;6.00;58.80
45044;DHT22;30784;48.490;9.688;2024-03-25T04:59:21;6.00;58.80
45044;DHT22;30784;48.490;9.688;2024-03-25T05:01:46;6.00;58.80
45044;DHT22;30784;48.490;9.688;2024-03-25T05:04:12;6.00;58.90
45044;DHT22;30784;48.490;9.688;2024-03-25T05:06:37;6.00;58.90
45044;DHT22;30784;48.490;9.688;2024-03-25T05:09:03;6.00;59.00
45044;DHT22;30784;48.490;9.688;2024-03-25T05:11:28;5.90;58.90
45044;DHT22;30784;48.490;9.688;2024-03-25T05:13:54;5.90;58.90
45044;DHT22;30784;48.490;9.688;2024-03-25T05:16:19;5.90;59.40
45044;DHT22;30784;48.490;9.688;2024-03-25T05:18:45;5.90;58.90
45044;DHT22;30784;48.490;9.688;2024-03-25T05:21:10;5.90;58.90
45044;DHT22;30784;48.490;9.688;2024-03-25T05:23:36;5.90;59.00
45044;DHT22;30784;48.490;9.688;2024-03-25T05:26:01;5.90;59.10
45044;DHT22;30784;48.490;9.688;2024-03-25T05:28:27;5.90;59.10
45044;DHT22;30784;48.490;9.688;2024-03-25T05:30:52;5.80;59.10
45044;DHT22;30784;48.490;9.688;2024-03-25T05:33:18;5.80;59.10
45044;DHT22;30784;48.490;9.688;2024-03-25T05:35:43;5.80;59.20
45044;DHT22;30784;48.490;9.688;2024-03-25T05:38:09;5.80;59.20
45044;DHT22;30784;48.490;9.688;2024-03-25T05:40:34;5.80;59.20
45044;DHT22;30784;48.490;9.688;2024-03-25T05:43:00;5.70;59.20
45044;DHT22;30784;48.490;9.688;2024-03-25T05:45:25;5.70;59.20
45044;DHT22;30784;48.490;9.688;2024-03-25T05:47:51;5.80;59.30
45044;DHT22;30784;48.490;9.688;2024-03-25T05:50:17;5.70;59.30
45044;DHT22;30784;48.490;9.688;2024-03-25T05:52:42;5.70;59.30
45044;DHT22;30784;48.490;9.688;2024-03-25T05:55:08;5.70;59.40
45044;DHT22;30784;48.490;9.688;2024-03-25T05:57:36;5.70;59.40
45044;DHT22;30784;48.490;9.688;2024-03-25T06:00:02;5.70;59.40
45044;DHT22;30784;48.490;9.688;2024-03-25T06:02:28;5.70;59.50
45044;DHT22;30784;48.490;9.688;2024-03-25T06:04:54;5.70;59.50
45044;DHT22;30784;48.490;9.688;2024-03-25T06:07:21;5.70;59.50
45044;DHT22;30784;48.490;9.688;2024-03-25T06:09:47;5.70;59.50
45044;DHT22;30784;48.490;9.688;2024-03-25T06:12:12;5.70;59.60
45044;DHT22;30784;48.490;9.688;2024-03-25T06:14:38;5.70;59.60
45044;DHT22;30784;48.490;9.688;2024-03-25T06:17:04;5.70;59.70
45044;DHT22;30784;48.490;9.688;2024-03-25T06:19:29;5.80;59.80
45044;DHT22;30784;48.490;9.688;2024-03-25T06:21:55;5.80;59.90
45044;DHT22;30784;48.490;9.688;2024-03-25T06:24:20;5.80;60.00
45044;DHT22;30784;48.490;9.688;2024-03-25T06:26:46;5.90;60.20
45044;DHT22;30784;48.490;9.688;2024-03-25T06:29:11;5.90;60.30
45044;DHT22;30784;48.490;9.688;2024-03-25T06:31:37;6.00;60.30
45044;DHT22;30784;48.490;9.688;2024-03-25T06:34:21;6.10;60.20
45044;DHT22;30784;48.490;9.688;2024-03-25T06:36:48;6.20;60.10
45044;DHT22;30784;48.490;9.688;2024-03-25T06:39:14;6.30;60.00
45044;DHT22;30784;48.490;9.688;2024-03-25T06:41:40;6.30;60.00
45044;DHT22;30784;48.490;9.688;2024-03-25T06:44:06;6.40;60.00
45044;DHT22;30784;48.490;9.688;2024-03-25T06:46:32;6.50;60.20
45044;DHT22;30784;48.490;9.688;2024-03-25T06:48:58;6.60;60.00
45044;DHT22;30784;48.490;9.688;2024-03-25T06:51:23;6.70;60.00
45044;DHT22;30784;48.490;9.688;2024-03-25T06:53:49;6.90;59.90
45044;DHT22;30784;48.490;9.688;2024-03-25T06:56:15;7.00;59.90
45044;DHT22;30784;48.490;9.688;2024-03-25T06:58:40;7.10;59.80
45044;DHT22;30784;48.490;9.688;2024-03-25T07:01:08;7.30;60.30
45044;DHT22;30784;48.490;9.688;2024-03-25T07:03:34;7.40;59.30
45044;DHT22;30784;48.490;9.688;2024-03-25T07:06:00;7.60;59.20
45044;DHT22;30784;48.490;9.688;2024-03-25T07:08:27;7.70;58.50
45044;DHT22;30784;48.490;9.688;2024-03-25T07:10:53;7.90;58.60
45044;DHT22;30784;48.490;9.688;2024-03-25T07:13:19;8.10;58.40
45044;DHT22;30784;48.490;9.688;2024-03-25T07:15:45;8.30;58.00
45044;DHT22;30784;48.490;9.688;2024-03-25T07:18:11;8.40;57.70
45044;DHT22;30784;48.490;9.688;2024-03-25T07:20:42;8.60;57.40
45044;DHT22;30784;48.490;9.688;2024-03-25T07:23:08;8.80;57.10
45044;DHT22;30784;48.490;9.688;2024-03-25T07:25:33;8.90;56.80
45044;DHT22;30784;48.490;9.688;2024-03-25T07:27:59;9.10;56.40
45044;DHT22;30784;48.490;9.688;2024-03-25T07:30:25;9.30;55.90
45044;DHT22;30784;48.490;9.688;2024-03-25T07:32:57;9.40;55.60
45044;DHT22;30784;48.490;9.688;2024-03-25T07:35:23;9.60;55.20
45044;DHT22;30784;48.490;9.688;2024-03-25T07:37:48;9.70;54.90
45044;DHT22;30784;48.490;9.688;2024-03-25T07:40:17;9.80;54.30
45044;DHT22;30784;48.490;9.688;2024-03-25T07:42:43;10.00;53.90
45044;DHT22;30784;48.490;9.688;2024-03-25T07:45:09;10.10;53.20
45044;DHT22;30784;48.490;9.688;2024-03-25T07:47:35;10.20;53.30
45044;DHT22;30784;48.490;9.688;2024-03-25T07:50:00;10.30;52.90
45044;DHT22;30784;48.490;9.688;2024-03-25T07:52:26;10.50;52.70
45044;DHT22;30784;48.490;9.688;2024-03-25T07:54:52;10.70;53.50
45044;DHT22;30784;48.490;9.688;2024-03-25T07:57:18;10.90;52.10
45044;DHT22;30784;48.490;9.688;2024-03-25T07:59:45;11.00;51.90
45044;DHT22;30784;48.490;9.688;2024-03-25T08:02:10;11.20;51.90
45044;DHT22;30784;48.490;9.688;2024-03-25T08:04:36;11.40;51.00
45044;DHT22;30784;48.490;9.688;2024-03-25T08:07:02;11.50;50.80
45044;DHT22;30784;48.490;9.688;2024-03-25T08:09:28;11.70;50.80
45044;DHT22;30784;48.490;9.688;2024-03-25T08:11:53;11.90;50.60
45044;DHT22;30784;48.490;9.688;2024-03-25T08:14:19;12.10;50.50
45044;DHT22;30784;48.490;9.688;2024-03-25T08:16:45;12.20;49.40
45044;DHT22;30784;48.490;9.688;2024-03-25T08:19:10;12.50;50.00
45044;DHT22;30784;48.490;9.688;2024-03-25T08:21:35;12.60;49.50
45044;DHT22;30784;48.490;9.688;2024-03-25T08:24:01;12.70;49.50
45044;DHT22;30784;48.490;9.688;2024-03-25T08:26:27;13.00;48.50
45044;DHT22;30784;48.490;9.688;2024-03-25T08:28:52;13.10;48.00
45044;DHT22;30784;48.490;9.688;2024-03-25T08:31:18;13.30;47.80
45044;DHT22;30784;48.490;9.688;2024-03-25T08:33:43;13.50;47.60
45044;DHT22;30784;48.490;9.688;2024-03-25T08:36:09;13.60;47.20
45044;DHT22;30784;48.490;9.688;2024-03-25T08:38:34;13.80;46.60
45044;DHT22;30784;48.490;9.688;2024-03-25T08:43:26;14.10;46.10
45044;DHT22;30784;48.490;9.688;2024-03-25T08:45:51;14.30;45.70
45044;DHT22;30784;48.490;9.688;2024-03-25T08:48:17;14.40;46.00
45044;DHT22;30784;48.490;9.688;2024-03-25T08:50:43;14.50;44.70
45044;DHT22;30784;48.490;9.688;2024-03-25T08:53:08;14.70;44.80
45044;DHT22;30784;48.490;9.688;2024-03-25T08:55:34;14.80;44.00
45044;DHT22;30784;48.490;9.688;2024-03-25T08:57:59;15.00;43.70
45044;DHT22;30784;48.490;9.688;2024-03-25T09:00:26;15.10;43.40
45044;DHT22;30784;48.490;9.688;2024-03-25T09:02:52;15.20;43.00
45044;DHT22;30784;48.490;9.688;2024-03-25T09:05:18;15.30;42.90
45044;DHT22;30784;48.490;9.688;2024-03-25T09:07:49;15.40;42.40
45044;DHT22;30784;48.490;9.688;2024-03-25T09:10:17;15.60;43.00
45044;DHT22;30784;48.490;9.688;2024-03-25T09:13:01;15.70;42.70
45044;DHT22;30784;48.490;9.688;2024-03-25T09:15:28;15.90;41.80
45044;DHT22;30784;48.490;9.688;2024-03-25T09:17:54;16.10;41.60
45044;DHT22;30784;48.490;9.688;2024-03-25T09:20:19;16.10;41.50
45044;DHT22;30784;48.490;9.688;2024-03-25T09:22:46;16.30;40.80
45044;DHT22;30784;48.490;9.688;2024-03-25T09:25:17;16.40;40.20
45044;DHT22;30784;48.490;9.688;2024-03-25T09:27:46;16.60;41.00
45044;DHT22;30784;48.490;9.688;2024-03-25T09:30:12;16.80;40.10
45044;DHT22;30784;48.490;9.688;2024-03-25T09:32:39;16.90;39.60
45044;DHT22;30784;48.490;9.688;2024-03-25T09:35:05;17.10;39.40
45044;DHT22;30784;48.490;9.688;2024-03-25T09:37:30;17.20;38.60
45044;DHT22;30784;48.490;9.688;2024-03-25T09:39:57;17.40;38.30
45044;DHT22;30784;48.490;9.688;2024-03-25T09:42:28;17.50;37.90
45044;DHT22;30784;48.490;9.688;2024-03-25T09:44:57;17.60;38.20
45044;DHT22;30784;48.490;9.688;2024-03-25T09:47:23;17.80;38.00
45044;DHT22;30784;48.490;9.688;2024-03-25T09:49:49;17.90;37.30
45044;DHT22;30784;48.490;9.688;2024-03-25T09:52:15;18.00;36.90
45044;DHT22;30784;48.490;9.688;2024-03-25T09:54:41;18.20;37.30
45044;DHT22;30784;48.490;9.688;2024-03-25T09:57:08;18.30;36.60
45044;DHT22;30784;48.490;9.688;2024-03-25T09:59:33;18.30;36.00
45044;DHT22;30784;48.490;9.688;2024-03-25T10:01:59;18.40;36.30
45044;DHT22;30784;48.490;9.688;2024-03-25T10:04:26;18.40;35.30
45044;DHT22;30784;48.490;9.688;2024-03-25T10:06:51;18.40;34.50
45044;DHT22;30784;48.490;9.688;2024-03-25T10:09:20;18.40;35.00
45044;DHT22;30784;48.490;9.688;2024-03-25T10:11:49;18.40;35.20
45044;DHT22;30784;48.490;9.688;2024-03-25T10:14:16;18.40;34.30
45044;DHT22;30784;48.490;9.688;2024-03-25T10:16:42;18.30;33.50
45044;DHT22;30784;48.490;9.688;2024-03-25T10:19:08;18.30;33.30
45044;DHT22;30784;48.490;9.688;2024-03-25T10:21:34;18.30;32.70
45044;DHT22;30784;48.490;9.688;2024-03-25T10:23:59;18.30;33.30
45044;DHT22;30784;48.490;9.688;2024-03-25T10:26:29;18.30;32.20
45044;DHT22;30784;48.490;9.688;2024-03-25T10:29:06;18.20;32.10
45044;DHT22;30784;48.490;9.688;2024-03-25T10:31:33;18.20;33.00
45044;DHT22;30784;48.490;9.688;2024-03-25T10:33:59;18.10;32.30
45044;DHT22;30784;48.490;9.688;2024-03-25T10:36:25;18.00;31.80
45044;DHT22;30784;48.490;9.688;2024-03-25T10:38:56;17.90;31.90
45044;DHT22;30784;48.490;9.688;2024-03-25T10:41:22;17.80;31.50
45044;DHT22;30784;48.490;9.688;2024-03-25T10:43:48;17.70;31.60
45044;DHT22;30784;48.490;9.688;2024-03-25T10:46:22;17.70;31.60
45044;DHT22;30784;48.490;9.688;2024-03-25T10:48:53;17.70;31.90
45044;DHT22;30784;48.490;9.688;2024-03-25T10:51:21;17.70;31.20
45044;DHT22;30784;48.490;9.688;2024-03-25T10:53:49;17.80;30.60
45044;DHT22;30784;48.490;9.688;2024-03-25T10:56:18;17.80;30.60
45044;DHT22;30784;48.490;9.688;2024-03-25T10:58:47;17.80;32.50
45044;DHT22;30784;48.490;9.688;2024-03-25T11:01:13;17.70;29.90
45044;DHT22;30784;48.490;9.688;2024-03-25T11:03:39;17.60;30.10
45044;DHT22;30784;48.490;9.688;2024-03-25T11:06:04;17.50;30.00
45044;DHT22;30784;48.490;9.688;2024-03-25T11:08:31;17.30;30.10
45044;DHT22;30784;48.490;9.688;2024-03-25T11:10:57;17.30;30.00
45044;DHT22;30784;48.490;9.688;2024-03-25T11:13:23;17.30;30.00
45044;DHT22;30784;48.490;9.688;2024-03-25T11:15:49;17.30;30.10
45044;DHT22;30784;48.490;9.688;2024-03-25T11:18:16;17.20;29.60
45044;DHT22;30784;48.490;9.688;2024-03-25T11:20:42;17.20;29.70
45044;DHT22;30784;48.490;9.688;2024-03-25T11:23:14;17.20;29.50
45044;DHT22;30784;48.490;9.688;2024-03-25T11:25:41;17.20;29.80
45044;DHT22;30784;48.490;9.688;2024-03-25T11:28:10;17.20;29.60
45044;DHT22;30784;48.490;9.688;2024-03-25T11:30:37;17.10;29.70
45044;DHT22;30784;48.490;9.688;2024-03-25T11:33:03;17.00;29.70
45044;DHT22;30784;48.490;9.688;2024-03-25T11:35:30;16.90;29.70
45044;DHT22;30784;48.490;9.688;2024-03-25T11:37:55;16.80;29.30
45044;DHT22;30784;48.490;9.688;2024-03-25T11:40:21;16.70;29.70
45044;DHT22;30784;48.490;9.688;2024-03-25T11:42:47;16.60;29.50
45044;DHT22;30784;48.490;9.688;2024-03-25T11:45:17;16.40;29.00
45044;DHT22;30784;48.490;9.688;2024-03-25T11:47:48;16.10;29.20
45044;DHT22;30784;48.490;9.688;2024-03-25T11:50:15;15.90;29.50
45044;DHT22;30784;48.490;9.688;2024-03-25T11:52:41;15.70;29.40
45044;DHT22;30784;48.490;9.688;2024-03-25T11:55:08;15.50;29.70
45044;DHT22;30784;48.490;9.688;2024-03-25T11:57:36;15.40;29.90
45044;DHT22;30784;48.490;9.688;2024-03-25T12:00:03;15.30;29.80
45044;DHT22;30784;48.490;9.688;2024-03-25T12:02:32;15.30;30.00
45044;DHT22;30784;48.490;9.688;2024-03-25T12:04:58;15.30;30.10
45044;DHT22;30784;48.490;9.688;2024-03-25T12:07:23;15.20;30.10
45044;DHT22;30784;48.490;9.688;2024-03-25T12:09:49;15.30;30.30
45044;DHT22;30784;48.490;9.688;2024-03-25T12:12:33;15.40;30.40
45044;DHT22;30784;48.490;9.688;2024-03-25T12:15:00;15.50;30.30
45044;DHT22;30784;48.490;9.688;2024-03-25T12:17:28;15.40;29.80
45044;DHT22;30784;48.490;9.688;2024-03-25T12:20:03;15.40;29.80
45044;DHT22;30784;48.490;9.688;2024-03-25T12:22:33;15.40;30.00
45044;DHT22;30784;48.490;9.688;2024-03-25T12:25:00;15.30;30.10
45044;DHT22;30784;48.490;9.688;2024-03-25T12:27:28;15.40;30.00
45044;DHT22;30784;48.490;9.688;2024-03-25T12:30:02;15.40;30.00
45044;DHT22;30784;48.490;9.688;2024-03-25T12:32:43;15.40;30.10
45044;DHT22;30784;48.490;9.688;2024-03-25T12:37:54;15.50;29.90
45044;DHT22;30784;48.490;9.688;2024-03-25T12:40:27;15.50;29.70
45044;DHT22;30784;48.490;9.688;2024-03-25T12:42:53;15.50;29.40
45044;DHT22;30784;48.490;9.688;2024-03-25T12:45:22;15.50;29.40
45044;DHT22;30784;48.490;9.688;2024-03-25T12:47:48;15.50;29.40
45044;DHT22;30784;48.490;9.688;2024-03-25T12:50:14;15.50;29.00
45044;DHT22;30784;48.490;9.688;2024-03-25T12:52:39;15.60;29.00
45044;DHT22;30784;48.490;9.688;2024-03-25T12:55:05;15.60;29.10
45044;DHT22;30784;48.490;9.688;2024-03-25T12:57:31;15.70;29.10
45044;DHT22;30784;48.490;9.688;2024-03-25T12:59:56;15.70;28.50
45044;DHT22;30784;48.490;9.688;2024-03-25T13:02:22;15.90;28.90
45044;DHT22;30784;48.490;9.688;2024-03-25T13:04:47;15.90;29.00
45044;DHT22;30784;48.490;9.688;2024-03-25T13:07:13;16.10;28.90
45044;DHT22;30784;48.490;9.688;2024-03-25T13:09:38;16.10;28.70
45044;DHT22;30784;48.490;9.688;2024-03-25T13:12:04;16.20;28.30
45044;DHT22;30784;48.490;9.688;2024-03-25T13:14:30;16.20;27.80
45044;DHT22;30784;48.490;9.688;2024-03-25T13:16:55;16.20;27.90
45044;DHT22;30784;48.490;9.688;2024-03-25T13:19:21;16.10;27.80
45044;DHT22;30784;48.490;9.688;2024-03-25T13:21:47;16.20;27.80
45044;DHT22;30784;48.490;9.688;2024-03-25T13:24:13;16.20;27.90
45044;DHT22;30784;48.490;9.688;2024-03-25T13:26:39;16.30;27.70
45044;DHT22;30784;48.490;9.688;2024-03-25T13:29:04;16.30;27.30
45044;DHT22;30784;48.490;9.688;2024-03-25T13:31:30;16.30;27.70
45044;DHT22;30784;48.490;9.688;2024-03-25T13:33:56;16.30;27.40
45044;DHT22;30784;48.490;9.688;2024-03-25T13:36:21;16.30;27.20
45044;DHT22;30784;48.490;9.688;2024-03-25T13:38:47;16.20;26.70
45044;DHT22;30784;48.490;9.688;2024-03-25T13:41:12;16.20;26.90
45044;DHT22;30784;48.490;9.688;2024-03-25T13:43:44;16.10;26.80
45044;DHT22;30784;48.490;9.688;2024-03-25T13:46:09;16.00;26.60
45044;DHT22;30784;48.490;9.688;2024-03-25T13:48:37;16.00;26.10
45044;DHT22;30784;48.490;9.688;2024-03-25T13:51:03;15.90;26.20
45044;DHT22;30784;48.490;9.688;2024-03-25T13:53:29;15.90;26.50
45044;DHT22;30784;48.490;9.688;2024-03-25T13:55:55;15.90;26.50
45044;DHT22;30784;48.490;9.688;2024-03-25T13:58:20;15.90;26.60
45044;DHT22;30784;48.490;9.688;2024-03-25T14:00:46;15.90;26.20
45044;DHT22;30784;48.490;9.688;2024-03-25T14:03:11;15.90;26.00
45044;DHT22;30784;48.490;9.688;2024-03-25T14:05:37;15.90;26.00
45044;DHT22;30784;48.490;9.688;2024-03-25T14:08:03;15.90;25.70
45044;DHT22;30784;48.490;9.688;2024-03-25T14:10:29;16.00;26.00
45044;DHT22;30784;48.490;9.688;2024-03-25T14:12:55;16.00;25.30
45044;DHT22;30784;48.490;9.688;2024-03-25T14:15:21;15.90;25.50
45044;DHT22;30784;48.490;9.688;2024-03-25T14:17:46;15.90;25.80
45044;DHT22;30784;48.490;9.688;2024-03-25T14:20:12;15.90;25.90
45044;DHT22;30784;48.490;9.688;2024-03-25T14:22:37;15.90;25.80
45044;DHT22;30784;48.490;9.688;2024-03-25T14:25:03;15.90;25.70
45044;DHT22;30784;48.490;9.688;2024-03-25T14:27:29;15.90;25.70
45044;DHT22;30784;48.490;9.688;2024-03-25T14:29:54;15.90;25.50
45044;DHT22;30784;48.490;9.688;2024-03-25T14:32:21;16.00;25.60
45044;DHT22;30784;48.490;9.688;2024-03-25T14:34:47;16.00;25.50
45044;DHT22;30784;48.490;9.688;2024-03-25T14:37:13;15.90;25.40
45044;DHT22;30784;48.490;9.688;2024-03-25T14:39:39;15.80;25.60
45044;DHT22;30784;48.490;9.688;2024-03-25T14:42:08;15.80;25.60
45044;DHT22;30784;48.490;9.688;2024-03-25T14:44:37;15.80;25.50
45044;DHT22;30784;48.490;9.688;2024-03-25T14:47:03;15.70;26.00
45044;DHT22;30784;48.490;9.688;2024-03-25T14:49:29;15.60;25.60
45044;DHT22;30784;48.490;9.688;2024-03-25T14:51:55;15.50;25.60
45044;DHT22;30784;48.490;9.688;2024-03-25T14:54:20;15.40;25.60
45044;DHT22;30784;48.490;9.688;2024-03-25T14:56:46;15.30;25.60
45044;DHT22;30784;48.490;9.688;2024-03-25T14:59:12;15.20;26.10
45044;DHT22;30784;48.490;9.688;2024-03-25T15:01:37;15.20;26.20
45044;DHT22;30784;48.490;9.688;2024-03-25T15:04:04;15.10;26.10
45044;DHT22;30784;48.490;9.688;2024-03-25T15:06:30;15.00;26.30
45044;DHT22;30784;48.490;9.688;2024-03-25T15:08:59;15.00;26.50
45044;DHT22;30784;48.490;9.688;2024-03-25T15:11:25;15.00;26.50
45044;DHT22;30784;48.490;9.688;2024-03-25T15:13:51;14.90;26.40
45044;DHT22;30784;48.490;9.688;2024-03-25T15:16:17;14.80;26.60
45044;DHT22;30784;48.490;9.688;2024-03-25T15:18:43;14.80;26.80
45044;DHT22;30784;48.490;9.688;2024-03-25T15:21:08;14.70;26.80
45044;DHT22;30784;48.490;9.688;2024-03-25T15:23:34;14.70;26.80
45044;DHT22;30784;48.490;9.688;2024-03-25T15:25:59;14.60;26.90
45044;DHT22;30784;48.490;9.688;2024-03-25T15:28:25;14.50;27.00
45044;DHT22;30784;48.490;9.688;2024-03-25T15:30:53;14.40;27.20
45044;DHT22;30784;48.490;9.688;2024-03-25T15:33:19;14.30;27.10
45044;DHT22;30784;48.490;9.688;2024-03-25T15:35:45;14.20;27.10
45044;DHT22;30784;48.490;9.688;2024-03-25T15:38:10;14.10;27.30